Time;durP1;ratioP1;P1;durP2;ratioP2;P2;SDS_P1;SDS_P2;PMS_P1;PMS_P2;Temp;Humidity;BMP_temperature;BMP_pressure;BME280_temperature;BME280_humidity;BME280_pressure;Samples;Min_cycle;Max_cycle;Signal;HPM_P1;HPM_P2
2023/02/08 00:01:52;;;;;;;20.67;11.25;;;-0.20;79.80;;;;;;9180116;19;20091;-61
2023/02/08 00:04:58;;;;;;;22.38;10.68;;;-0.20;79.80;;;;;;9179643;19;20750;-61
2023/02/08 00:08:03;;;;;;;22.77;11.02;;;-0.20;79.80;;;;;;9179862;19;20023;-58
2023/02/08 00:11:09;;;;;;;23.02;10.35;;;-0.20;79.80;;;;;;9177365;19;20476;-60
2023/02/08 00:14:15;;;;;;;23.17;10.98;;;-0.30;79.80;;;;;;9176078;19;20022;-62
2023/02/08 00:17:19;;;;;;;22.42;10.70;;;-0.30;79.80;;;;;;9178961;19;20026;-60
2023/02/08 00:20:27;;;;;;;19.17;10.82;;;-0.30;79.80;;;;;;9175091;19;20015;-60
2023/02/08 00:23:30;;;;;;;23.77;10.50;;;-0.30;79.80;;;;;;9177206;19;20018;-62
2023/02/08 00:26:36;;;;;;;18.58;11.35;;;-0.30;79.90;;;;;;9178612;19;20029;-62
2023/02/08 00:29:40;;;;;;;19.02;11.18;;;-0.40;79.80;;;;;;9179391;19;20594;-60
2023/02/08 00:32:46;;;;;;;23.70;10.40;;;-0.40;79.90;;;;;;9178017;19;20010;-60
2023/02/08 00:35:52;;;;;;;22.48;11.45;;;-0.40;79.90;;;;;;9176616;19;20011;-59
2023/02/08 00:38:58;;;;;;;20.25;11.13;;;-0.40;79.90;;;;;;9176326;19;20476;-59
2023/02/08 00:42:02;;;;;;;23.25;10.60;;;-0.40;79.90;;;;;;9178597;19;20014;-62
2023/02/08 00:45:08;;;;;;;20.30;11.35;;;-0.50;79.90;;;;;;9178474;19;20026;-61
2023/02/08 00:48:12;;;;;;;20.33;11.30;;;-0.50;79.90;;;;;;9178369;19;20021;-60
2023/02/08 00:51:20;;;;;;;19.27;10.07;;;-0.50;79.90;;;;;;9178789;19;20372;-62
2023/02/08 00:54:26;;;;;;;18.63;10.65;;;-0.50;79.90;;;;;;9172186;19;20021;-59
2023/02/08 00:57:33;;;;;;;21.25;10.98;;;-0.50;79.90;;;;;;9178282;19;20025;-61
2023/02/08 01:00:37;;;;;;;22.15;11.13;;;-0.50;79.90;;;;;;9177885;19;20455;-62
2023/02/08 01:03:46;;;;;;;21.08;11.45;;;-0.50;79.90;;;;;;9177537;19;20022;-62
2023/02/08 01:06:52;;;;;;;21.73;11.45;;;-0.60;79.90;;;;;;9177219;19;20018;-60
2023/02/08 01:10:13;;;;;;;21.42;10.50;;;-0.60;79.90;;;;;;9176675;19;20055;-59
2023/02/08 01:13:17;;;;;;;20.10;11.13;;;-0.60;79.90;;;;;;9174119;19;20018;-60
2023/02/08 01:16:27;;;;;;;22.35;11.20;;;-0.60;80.00;;;;;;9177493;19;20021;-59
2023/02/08 01:19:34;;;;;;;19.95;11.68;;;-0.60;80.00;;;;;;9173291;19;20018;-61
2023/02/08 01:22:43;;;;;;;18.40;10.40;;;-0.70;80.00;;;;;;9177973;19;20022;-59
2023/02/08 01:25:47;;;;;;;22.05;11.77;;;-0.60;80.00;;;;;;9175770;19;20010;-61
2023/02/08 01:28:54;;;;;;;19.65;10.55;;;-0.70;80.00;;;;;;9174858;19;20015;-62
2023/02/08 01:31:59;;;;;;;22.48;10.95;;;-0.70;80.00;;;;;;9176764;19;20018;-59
2023/02/08 01:35:08;;;;;;;21.17;11.82;;;-0.70;80.00;;;;;;9172366;19;20017;-61
2023/02/08 01:38:16;;;;;;;24.80;12.00;;;-0.70;80.00;;;;;;9173153;19;20849;-58
2023/02/08 01:41:24;;;;;;;22.65;11.27;;;-0.70;80.00;;;;;;9175648;19;20014;-60
2023/02/08 01:45:07;;;;;;;21.50;11.20;;;-0.70;80.00;;;;;;9175794;19;20023;-58
2023/02/08 01:48:18;;;;;;;25.42;12.18;;;-0.80;80.00;;;;;;9174486;19;20355;-63
2023/02/08 01:51:25;;;;;;;24.30;12.10;;;-0.80;80.00;;;;;;9176168;19;20014;-61
2023/02/08 01:54:39;;;;;;;24.27;12.75;;;-0.80;80.00;;;;;;9172416;19;20022;-61
2023/02/08 01:57:44;;;;;;;24.25;12.63;;;-0.80;80.60;;;;;;9175413;19;20037;-61
2023/02/08 02:00:50;;;;;;;25.92;12.98;;;-0.80;80.00;;;;;;9175373;19;20019;-61
2023/02/08 02:03:54;;;;;;;23.90;11.68;;;-0.80;80.00;;;;;;9175220;19;20014;-61
2023/02/08 02:07:01;;;;;;;24.90;11.43;;;-0.90;80.00;;;;;;9179710;19;20010;-61
2023/02/08 02:10:11;;;;;;;25.77;11.02;;;-0.80;80.10;;;;;;9183086;19;20015;-61
2023/02/08 02:13:20;;;;;;;26.45;12.30;;;-0.90;80.00;;;;;;9182369;19;20010;-60
2023/02/08 02:16:24;;;;;;;24.48;11.52;;;-0.90;80.00;;;;;;9183098;19;20015;-59
2023/02/08 02:19:38;;;;;;;22.60;11.75;;;-0.90;80.10;;;;;;9179696;19;20015;-61
2023/02/08 02:23:17;;;;;;;23.25;11.82;;;-0.90;80.00;;;;;;9183533;19;20015;-59
2023/02/08 02:26:53;;;;;;;24.27;11.23;;;-0.90;80.00;;;;;;9183094;19;20458;-60
2023/02/08 02:30:33;;;;;;;26.52;11.45;;;-0.90;80.00;;;;;;9181959;19;20070;-62
2023/02/08 02:34:00;;;;;;;22.67;12.55;;;-1.00;80.00;;;;;;9181549;19;20014;-61
2023/02/08 02:37:12;;;;;;;26.00;11.75;;;-1.00;80.00;;;;;;9182527;19;20021;-60
2023/02/08 02:40:26;;;;;;;21.17;12.38;;;-1.00;80.00;;;;;;9183321;19;20014;-60
2023/02/08 02:43:41;;;;;;;25.75;11.02;;;-1.00;80.00;;;;;;9182098;19;20014;-61
2023/02/08 02:47:00;;;;;;;22.38;11.40;;;-1.00;80.10;;;;;;9181880;19;20018;-59
2023/02/08 02:50:11;;;;;;;20.63;11.38;;;-1.00;80.10;;;;;;9182190;19;20359;-59
2023/02/08 02:53:21;;;;;;;22.15;12.20;;;-1.10;80.00;;;;;;9180986;19;20351;-61
2023/02/08 02:56:28;;;;;;;27.35;12.43;;;-1.10;80.00;;;;;;9180757;19;20053;-61
2023/02/08 02:59:36;;;;;;;22.42;11.57;;;-1.10;80.00;;;;;;9182426;19;20033;-61
2023/02/08 03:02:40;;;;;;;20.33;10.80;;;-1.10;80.70;;;;;;9181978;19;20026;-61
2023/02/08 03:05:48;;;;;;;23.75;11.68;;;-1.10;80.10;;;;;;9181824;19;20038;-60
2023/02/08 03:09:28;;;;;;;26.10;12.02;;;-1.10;80.10;;;;;;9181858;19;20014;-59
2023/02/08 03:12:46;;;;;;;27.38;12.23;;;-1.20;80.00;;;;;;9180709;19;20494;-59
2023/02/08 03:16:01;;;;;;;24.73;12.07;;;-1.20;80.00;;;;;;9182135;19;20011;-60
2023/02/08 03:19:15;;;;;;;24.48;12.25;;;-1.20;80.10;;;;;;9175777;19;20399;-59
2023/02/08 03:22:27;;;;;;;22.05;11.80;;;-1.20;80.10;;;;;;9181550;19;20021;-60
2023/02/08 03:25:41;;;;;;;25.20;12.70;;;-1.20;80.10;;;;;;9180751;19;20015;-59
2023/02/08 03:28:55;;;;;;;25.23;12.30;;;-1.20;80.10;;;;;;9176914;19;20018;-59
2023/02/08 03:32:05;;;;;;;24.55;12.48;;;-1.30;80.10;;;;;;9180876;19;20025;-60
2023/02/08 03:35:15;;;;;;;26.45;12.48;;;-1.30;80.10;;;;;;9177661;19;20029;-60
2023/02/08 03:38:28;;;;;;;21.67;12.02;;;-1.30;80.10;;;;;;9180953;19;20015;-60
2023/02/08 03:41:37;;;;;;;26.52;13.07;;;-1.30;80.20;;;;;;9180627;19;20082;-59
2023/02/08 03:44:48;;;;;;;24.88;12.48;;;-1.30;80.10;;;;;;9180679;19;20590;-61
2023/02/08 03:47:55;;;;;;;27.80;13.07;;;-1.40;80.10;;;;;;9178403;19;20022;-62
2023/02/08 03:51:03;;;;;;;27.95;12.98;;;-1.40;80.10;;;;;;9180388;19;20011;-58
2023/02/08 03:54:15;;;;;;;23.95;13.32;;;-1.40;80.10;;;;;;9178701;19;20463;-61
2023/02/08 03:57:22;;;;;;;;;;;-1.40;80.20;;;;;;9181204;19;20011;-61
2023/02/08 04:00:26;;;;;;;23.55;12.73;;;-1.40;80.10;;;;;;9179664;19;19918;-59
2023/02/08 04:03:34;;;;;;;35.60;12.40;;;-1.40;80.10;;;;;;9179794;19;20007;-59
2023/02/08 04:06:38;;;;;;;28.25;12.38;;;-1.50;80.10;;;;;;9179827;19;20014;-59
2023/02/08 04:09:46;;;;;;;25.10;12.10;;;-1.50;80.10;;;;;;9178984;19;20585;-59
2023/02/08 04:13:05;;;;;;;23.27;12.48;;;-1.50;80.80;;;;;;9178829;19;20356;-61
2023/02/08 04:16:12;;;;;;;22.73;12.57;;;-1.50;80.20;;;;;;9179360;19;20018;-62
2023/02/08 04:19:16;;;;;;;26.98;13.48;;;-1.50;80.20;;;;;;9175188;19;20015;-60
2023/02/08 04:22:22;;;;;;;25.45;13.63;;;-1.50;80.20;;;;;;9177631;19;20018;-59
2023/02/08 04:25:28;;;;;;;27.05;13.43;;;-1.50;80.20;;;;;;9180026;19;20479;-61
2023/02/08 04:28:34;;;;;;;26.05;12.98;;;-1.50;80.20;;;;;;9176459;19;20022;-63
2023/02/08 04:31:38;;;;;;;28.60;13.82;;;-1.50;80.20;;;;;;9178874;19;20045;-60
2023/02/08 04:34:44;;;;;;;26.45;13.45;;;-1.50;80.30;;;;;;9175771;19;20360;-60
2023/02/08 04:37:48;;;;;;;24.83;13.30;;;-1.50;80.30;;;;;;9178471;19;20010;-59
2023/02/08 04:40:56;;;;;;;26.70;14.07;;;-1.50;80.30;;;;;;9178364;19;20644;-61
2023/02/08 04:44:00;;;;;;;29.88;13.52;;;-1.50;80.20;;;;;;9178450;19;20745;-60
2023/02/08 04:47:06;;;;;;;30.10;13.68;;;-1.50;80.30;;;;;;9178623;19;20010;-59
2023/02/08 04:50:10;;;;;;;23.88;13.27;;;-1.50;80.30;;;;;;9178026;19;20049;-61
2023/02/08 04:53:16;;;;;;;28.17;13.32;;;-1.50;80.30;;;;;;9177393;19;20483;-59
2023/02/08 04:56:21;;;;;;;28.50;14.23;;;-1.60;80.20;;;;;;9178021;19;20015;-60
2023/02/08 04:59:27;;;;;;;26.55;13.75;;;-1.60;80.20;;;;;;9178135;19;20014;-60
2023/02/08 05:02:31;;;;;;;27.30;13.45;;;-1.60;80.20;;;;;;9177752;19;20018;-61
2023/02/08 05:05:37;;;;;;;24.73;13.45;;;-1.60;80.20;;;;;;9177627;19;20014;-61
2023/02/08 05:08:41;;;;;;;25.65;13.95;;;-1.60;80.20;;;;;;9177708;19;20014;-60
2023/02/08 05:11:49;;;;;;;27.67;14.18;;;-1.60;80.20;;;;;;9174495;19;20018;-58
2023/02/08 05:14:53;;;;;;;24.83;13.57;;;-1.60;80.30;;;;;;9172797;19;20037;-61
2023/02/08 05:17:58;;;;;;;24.42;13.07;;;-1.60;80.20;;;;;;9177182;19;20033;-61
2023/02/08 05:21:03;;;;;;;30.02;13.75;;;-1.60;80.30;;;;;;9168851;19;20025;-61
2023/02/08 05:24:11;;;;;;;27.63;13.13;;;-1.60;80.30;;;;;;9176764;19;20018;-60
2023/02/08 05:27:17;;;;;;;27.77;13.60;;;-1.60;80.30;;;;;;9176348;19;20455;-62
2023/02/08 05:30:23;;;;;;;25.52;12.82;;;-1.60;80.30;;;;;;9177412;19;20022;-61
2023/02/08 05:33:27;;;;;;;28.33;12.57;;;-1.70;80.30;;;;;;9175694;19;20018;-61
2023/02/08 05:36:33;;;;;;;26.08;12.63;;;-1.70;80.30;;;;;;9175978;19;20565;-62
2023/02/08 05:39:37;;;;;;;26.90;13.77;;;-1.70;80.30;;;;;;9176780;19;20006;-61
2023/02/08 05:42:46;;;;;;;27.05;13.18;;;-1.60;80.40;;;;;;9182760;19;20010;-60
2023/02/08 05:45:51;;;;;;;28.58;13.45;;;-1.70;80.40;;;;;;9185042;19;20464;-60
2023/02/08 05:48:57;;;;;;;30.75;14.63;;;-1.70;80.30;;;;;;9182246;19;20018;-62
2023/02/08 05:52:01;;;;;;;27.63;14.18;;;-1.70;80.30;;;;;;9183796;19;20022;-60
2023/02/08 05:55:08;;;;;;;25.08;12.63;;;-1.70;80.40;;;;;;9182509;19;20022;-59
2023/02/08 05:58:14;;;;;;;27.58;14.07;;;-1.70;80.30;;;;;;9184012;19;20036;-59
2023/02/08 06:01:20;;;;;;;26.13;13.23;;;-1.70;80.30;;;;;;9183399;19;20364;-60
2023/02/08 06:04:24;;;;;;;23.95;12.55;;;-1.70;80.40;;;;;;9183598;19;20018;-61
2023/02/08 06:07:30;;;;;;;28.45;14.07;;;-1.70;80.40;;;;;;9184130;19;20010;-60
2023/02/08 06:10:34;;;;;;;26.95;13.63;;;-1.70;80.30;;;;;;9181853;19;20019;-60
2023/02/08 06:13:42;;;;;;;28.38;12.82;;;-1.70;80.40;;;;;;9182124;19;20029;-61
2023/02/08 06:16:46;;;;;;;32.10;14.13;;;-1.70;80.30;;;;;;9180376;19;20043;-61
2023/02/08 06:19:52;;;;;;;27.33;13.50;;;-1.70;80.40;;;;;;9177172;19;20464;-60
2023/02/08 06:22:56;;;;;;;30.23;13.82;;;-1.70;80.40;;;;;;9182873;19;20018;-61
2023/02/08 06:26:02;;;;;;;35.28;14.35;;;-1.70;80.40;;;;;;9182881;19;20018;-60
2023/02/08 06:29:08;;;;;;;30.08;14.23;;;-1.70;80.40;;;;;;9182991;19;20011;-59
2023/02/08 06:32:14;;;;;;;29.65;13.80;;;-1.70;80.40;;;;;;9182734;19;20030;-59
2023/02/08 06:35:19;;;;;;;34.10;15.13;;;-1.70;80.40;;;;;;9178991;19;20484;-60
2023/02/08 06:38:24;;;;;;;26.95;14.25;;;-1.70;80.40;;;;;;9182409;19;20022;-60
2023/02/08 06:41:28;;;;;;;29.33;14.63;;;-1.70;80.40;;;;;;9183558;19;20503;-65
2023/02/08 06:44:36;;;;;;;29.35;14.23;;;-1.70;80.40;;;;;;9180941;19;20018;-63
2023/02/08 06:47:40;;;;;;;30.23;14.25;;;-1.70;80.40;;;;;;9182152;19;20036;-61
2023/02/08 06:50:46;;;;;;;26.80;13.88;;;-1.70;80.40;;;;;;9183183;19;20010;-62
2023/02/08 06:53:49;;;;;;;34.35;14.45;;;-1.70;80.40;;;;;;9179814;19;20018;-59
2023/02/08 06:56:55;;;;;;;25.42;12.70;;;-1.70;80.40;;;;;;9181183;19;20010;-60
2023/02/08 07:00:02;;;;;;;33.08;14.20;;;-1.70;80.40;;;;;;9177594;19;20118;-60
2023/02/08 07:03:07;;;;;;;30.88;13.60;;;-1.70;80.40;;;;;;9179593;19;20013;-60
2023/02/08 07:06:15;;;;;;;30.35;14.68;;;-1.70;80.40;;;;;;9182196;19;20013;-60
2023/02/08 07:09:21;;;;;;;29.83;14.02;;;-1.70;80.50;;;;;;9178896;19;20021;-61
2023/02/08 07:12:25;;;;;;;28.70;14.50;;;-1.70;80.40;;;;;;9163730;19;20157;-62
2023/02/08 07:15:34;;;;;;;24.98;13.80;;;-1.70;80.40;;;;;;9166564;19;20015;-62
2023/02/08 07:18:38;;;;;;;27.95;14.80;;;-1.70;80.40;;;;;;9168082;19;20473;-62
2023/02/08 07:21:44;;;;;;;31.83;15.35;;;-1.70;80.50;;;;;;9168406;19;20025;-61
2023/02/08 07:24:48;;;;;;;32.05;15.35;;;-1.80;80.40;;;;;;9166686;19;20692;-59
2023/02/08 07:27:54;;;;;;;26.88;13.75;;;-1.80;80.50;;;;;;9168523;19;20011;-61
2023/02/08 07:31:00;;;;;;;22.67;12.40;;;-1.80;80.40;;;;;;9170262;19;20451;-60
2023/02/08 07:34:06;;;;;;;28.77;14.75;;;-1.80;80.50;;;;;;9169415;19;20498;-63
2023/02/08 07:37:10;;;;;;;29.52;14.68;;;-1.80;80.50;;;;;;9174406;19;20436;-60
2023/02/08 07:40:16;;;;;;;25.65;13.45;;;-1.80;80.50;;;;;;9174609;19;20011;-62
2023/02/08 07:43:20;;;;;;;30.25;15.13;;;-1.80;80.50;;;;;;9174919;19;20019;-62
2023/02/08 07:46:36;;;;;;;33.03;13.82;;;-1.80;80.60;;;;;;9171251;19;20010;-61
2023/02/08 07:49:40;;;;;;;28.25;14.13;;;-1.80;80.50;;;;;;9175558;19;20014;-59
2023/02/08 07:52:46;;;;;;;26.90;14.25;;;-1.80;80.50;;;;;;9174427;19;20364;-59
2023/02/08 07:55:50;;;;;;;33.22;14.85;;;-1.80;80.70;;;;;;9170892;19;20021;-59
2023/02/08 07:58:56;;;;;;;29.92;15.43;;;-1.70;81.20;;;;;;9176229;19;20019;-59
2023/02/08 08:02:02;;;;;;;29.58;14.73;;;-1.70;80.60;;;;;;9173346;19;20022;-64
2023/02/08 08:05:09;;;;;;;31.17;14.98;;;-1.70;80.60;;;;;;9175576;19;20013;-60
2023/02/08 08:08:14;;;;;;;35.97;16.58;;;-1.60;80.70;;;;;;9174652;19;20033;-62
2023/02/08 08:11:21;;;;;;;28.58;14.80;;;-1.60;80.70;;;;;;9174189;19;20019;-61
2023/02/08 08:14:25;;;;;;;34.85;15.63;;;-1.60;80.70;;;;;;9170600;19;20018;-61
2023/02/08 08:17:33;;;;;;;32.28;15.88;;;-1.60;80.70;;;;;;9175707;19;20014;-61
2023/02/08 08:20:37;;;;;;;36.20;17.35;;;-1.60;80.70;;;;;;9169805;19;20051;-62
2023/02/08 08:23:43;;;;;;;34.30;15.98;;;-1.50;80.70;;;;;;9178034;19;20019;-60
2023/02/08 08:26:47;;;;;;;33.95;15.48;;;-1.50;80.70;;;;;;9172281;19;20423;-61
2023/02/08 08:29:53;;;;;;;31.10;15.32;;;-1.50;80.80;;;;;;9173616;19;20483;-63
2023/02/08 08:32:59;;;;;;;30.00;15.45;;;-1.50;80.80;;;;;;9175043;19;20011;-63
2023/02/08 08:36:05;;;;;;;33.55;15.75;;;-1.40;80.80;;;;;;9167205;19;20015;-61
2023/02/08 08:39:09;;;;;;;34.83;17.38;;;-1.40;80.90;;;;;;9171662;19;20014;-60
2023/02/08 08:42:14;;;;;;;35.15;17.15;;;-1.20;81.00;;;;;;9171895;19;20340;-62
2023/02/08 08:45:19;;;;;;;36.33;17.25;;;-1.20;81.20;;;;;;9170979;19;20057;-63
2023/02/08 08:48:26;;;;;;;35.60;18.25;;;-1.00;81.20;;;;;;9172343;19;20014;-61
2023/02/08 08:51:34;;;;;;;41.13;18.75;;;-1.00;81.20;;;;;;9168228;19;20074;-63
2023/02/08 08:54:40;;;;;;;39.17;19.25;;;-0.80;81.40;;;;;;9167576;19;20021;-62
2023/02/08 08:57:58;;;;;;;44.83;21.23;;;-0.60;81.60;;;;;;9165310;19;20110;-64
2023/02/08 09:01:05;;;;;;;44.20;20.98;;;-0.40;81.60;;;;;;9168131;19;20106;-61
2023/02/08 09:04:10;;;;;;;41.05;19.67;;;-0.10;81.80;;;;;;9165521;19;20014;-61
2023/02/08 09:07:16;;;;;;;35.47;17.10;;;0.10;81.80;;;;;;9166443;19;20010;-61
2023/02/08 09:10:20;;;;;;;31.13;16.35;;;0.30;81.80;;;;;;9164136;19;20353;-62
2023/02/08 09:13:26;;;;;;;40.33;16.60;;;0.50;81.80;;;;;;9166621;19;20038;-61
2023/02/08 09:16:30;;;;;;;30.33;15.25;;;0.70;81.70;;;;;;9168203;19;20014;-61
2023/02/08 09:19:39;;;;;;;25.92;13.90;;;0.90;81.70;;;;;;9162680;19;20010;-61
2023/02/08 09:22:43;;;;;;;27.50;14.13;;;1.10;81.60;;;;;;9164738;19;20540;-62
2023/02/08 09:25:48;;;;;;;24.75;13.85;;;1.20;81.50;;;;;;9163974;19;20011;-62
2023/02/08 09:28:53;;;;;;;34.22;13.57;;;1.30;81.40;;;;;;9166114;19;20018;-61
2023/02/08 09:32:00;;;;;;;28.95;12.63;;;1.50;81.40;;;;;;9163807;19;20051;-62
2023/02/08 09:35:20;;;;;;;26.67;12.45;;;1.60;81.30;;;;;;9162613;19;20041;-62
2023/02/08 09:38:26;;;;;;;26.08;13.73;;;1.80;81.40;;;;;;9165359;19;20022;-63
2023/02/08 09:41:49;;;;;;;26.23;12.40;;;1.90;81.40;;;;;;9163107;19;20018;-60
2023/02/08 09:45:17;;;;;;;26.10;12.27;;;2.10;81.50;;;;;;9164296;19;20489;-63
2023/02/08 09:48:25;;;;;;;22.88;12.52;;;2.30;81.50;;;;;;9162184;19;20019;-65
2023/02/08 09:51:38;;;;;;;22.33;12.10;;;2.60;81.60;;;;;;9159048;19;20614;-61
2023/02/08 09:54:45;;;;;;;23.95;12.40;;;2.80;81.50;;;;;;9169456;19;20014;-63
2023/02/08 09:57:54;;;;;;;19.60;11.02;;;3.00;81.50;;;;;;9163142;19;20018;-64
2023/02/08 10:00:59;;;;;;;23.05;10.95;;;3.30;81.50;;;;;;9160409;19;20015;-62
2023/02/08 10:04:13;;;;;;;20.80;11.35;;;3.50;81.40;;;;;;9164914;19;20048;-62
2023/02/08 10:07:19;;;;;;;18.63;9.95;;;3.70;81.40;;;;;;9163225;19;20014;-60
2023/02/08 10:10:45;;;;;;;20.83;10.82;;;4.00;81.30;;;;;;9163599;19;20025;-63
2023/02/08 10:14:02;;;;;;;16.08;8.60;;;4.20;81.40;;;;;;9166495;19;20445;-64
2023/02/08 10:17:26;;;;;;;16.95;8.55;;;4.50;81.30;;;;;;9163011;19;20018;-60
2023/02/08 10:20:40;;;;;;;21.25;8.50;;;4.70;81.10;;;;;;9158869;19;20041;-62
2023/02/08 10:24:10;;;;;;;15.88;7.57;;;4.90;81.00;;;;;;9162787;19;20006;-62
2023/02/08 10:27:17;;;;;;;13.38;7.18;;;5.20;80.90;;;;;;9169977;19;20037;-63
2023/02/08 10:30:35;;;;;;;15.60;8.30;;;5.40;80.80;;;;;;9173631;19;20018;-63
2023/02/08 10:33:48;;;;;;;14.93;7.90;;;5.60;80.70;;;;;;9171397;19;20451;-62
2023/02/08 10:36:54;;;;;;;16.45;8.38;;;5.90;80.60;;;;;;9171685;19;20494;-61
2023/02/08 10:40:16;;;;;;;18.58;8.18;;;6.10;80.40;;;;;;9173348;19;20479;-60
2023/02/08 10:43:29;;;;;;;15.32;8.73;;;6.20;80.00;;;;;;9174791;19;20022;-63
2023/02/08 10:46:38;;;;;;;15.93;8.23;;;6.40;80.00;;;;;;9168638;19;20023;-63
2023/02/08 10:49:51;;;;;;;13.27;7.55;;;6.60;79.80;;;;;;9174679;19;20483;-62
2023/02/08 10:52:55;;;;;;;11.23;6.78;;;6.70;79.50;;;;;;9171338;19;20021;-63
2023/02/08 10:56:04;;;;;;;15.25;7.05;;;6.80;79.30;;;;;;9171850;19;20014;-64
2023/02/08 10:59:17;;;;;;;11.60;7.22;;;7.00;79.20;;;;;;9175185;19;20503;-64
2023/02/08 11:02:25;;;;;;;;;;;7.10;79.00;;;;;;9170210;19;20022;-63
2023/02/08 11:05:37;;;;;;;12.85;5.95;;;7.20;78.90;;;;;;9168827;19;19990;-62
2023/02/08 11:08:57;;;;;;;10.88;4.72;;;7.40;79.00;;;;;;9173429;19;20018;-62
2023/02/08 11:12:04;;;;;;;8.23;4.13;;;7.50;78.60;;;;;;9172098;19;20046;-63
2023/02/08 11:15:25;;;;;;;7.68;4.25;;;7.60;78.50;;;;;;9171948;19;20006;-63
2023/02/08 11:18:33;;;;;;;6.97;4.22;;;7.70;77.90;;;;;;9170788;19;20038;-62
2023/02/08 11:21:41;;;;;;;8.55;4.43;;;7.70;77.90;;;;;;9168818;19;20015;-63
2023/02/08 11:24:49;;;;;;;8.60;4.55;;;7.80;77.60;;;;;;9166243;19;20623;-65
2023/02/08 11:27:59;;;;;;;8.75;4.57;;;7.90;77.40;;;;;;9171121;19;20014;-63
2023/02/08 11:31:11;;;;;;;12.15;4.72;;;8.00;77.10;;;;;;9178408;19;20095;-62
2023/02/08 11:34:25;;;;;;;7.97;3.72;;;8.00;76.90;;;;;;9168913;19;20017;-66
2023/02/08 11:37:29;;;;;;;8.70;4.20;;;8.10;76.70;;;;;;9170568;19;20022;-64
2023/02/08 11:40:37;;;;;;;6.78;4.25;;;8.20;76.50;;;;;;9169417;19;20490;-66
2023/02/08 11:43:44;;;;;;;9.15;3.38;;;8.20;76.30;;;;;;9174272;19;20022;-63
2023/02/08 11:46:51;;;;;;;11.90;4.90;;;8.20;76.00;;;;;;9176906;19;20348;-60
2023/02/08 11:50:22;;;;;;;7.85;4.07;;;8.20;75.90;;;;;;9178951;19;20014;-62
2023/02/08 11:53:35;;;;;;;6.78;4.03;;;8.20;75.70;;;;;;9176320;19;20019;-63
2023/02/08 11:56:39;;;;;;;11.00;3.88;;;8.30;75.60;;;;;;9168625;19;20831;-63
2023/02/08 11:59:47;;;;;;;9.13;4.07;;;8.30;75.40;;;;;;9172668;19;20341;-61
2023/02/08 12:02:52;;;;;;;8.07;3.15;;;8.30;75.20;;;;;;9177307;19;20045;-60
2023/02/08 12:06:12;;;;;;;5.78;3.65;;;8.20;74.90;;;;;;9178012;19;20011;-62
2023/02/08 12:09:38;;;;;;;6.72;3.80;;;8.20;74.60;;;;;;9172122;19;20044;-66
2023/02/08 12:12:58;;;;;;;7.00;3.47;;;8.10;74.50;;;;;;9173372;19;20010;-60
2023/02/08 12:16:15;;;;;;;5.97;3.53;;;8.00;74.40;;;;;;9166712;19;20082;-60
2023/02/08 12:20:00;;;;;;;5.07;3.05;;;8.00;74.40;;;;;;9166282;19;20137;-62
2023/02/08 12:23:25;;;;;;;4.88;2.92;;;7.90;73.90;;;;;;9175344;19;20367;-62
2023/02/08 12:26:44;;;;;;;8.30;2.65;;;7.80;74.20;;;;;;9172819;19;20010;-62
2023/02/08 12:29:56;;;;;;;7.25;2.95;;;7.70;74.10;;;;;;9174576;19;20019;-61
2023/02/08 12:33:28;;;;;;;6.45;2.58;;;7.70;74.20;;;;;;9173549;19;20726;-62
2023/02/08 12:40:54;;;;;;;3.55;2.42;;;7.60;73.70;;;;;;9166127;19;20018;-62
2023/02/08 12:44:04;;;;;;;5.28;2.55;;;7.50;73.70;;;;;;9167836;19;20166;-62
2023/02/08 12:47:29;;;;;;;4.13;2.45;;;7.50;73.80;;;;;;9168354;19;20022;-62
2023/02/08 12:50:42;;;;;;;2.33;1.75;;;7.40;73.40;;;;;;9167335;19;20020;-62
2023/02/08 12:53:53;;;;;;;6.07;1.95;;;7.40;73.50;;;;;;9178200;19;20055;-63
2023/02/08 12:56:59;;;;;;;3.80;2.25;;;7.40;73.40;;;;;;9174013;19;20026;-63
2023/02/08 13:00:19;;;;;;;4.43;2.33;;;7.40;73.30;;;;;;9176845;19;20026;-63
2023/02/08 13:03:33;;;;;;;4.38;2.08;;;7.40;72.80;;;;;;9176524;19;20010;-63
2023/02/08 13:06:43;;;;;;;4.55;2.08;;;7.40;72.80;;;;;;9177266;19;20018;-62
2023/02/08 13:09:57;;;;;;;3.92;1.90;;;7.30;72.80;;;;;;9171360;19;20831;-63
2023/02/08 13:13:12;;;;;;;7.50;2.42;;;7.30;72.60;;;;;;9173013;19;20014;-61
2023/02/08 13:16:22;;;;;;;3.35;1.92;;;7.30;72.50;;;;;;9169673;19;20022;-63
2023/02/08 13:19:33;;;;;;;6.70;1.90;;;7.30;72.40;;;;;;9167355;19;20499;-63
2023/02/08 13:22:42;;;;;;;4.18;1.98;;;7.30;72.20;;;;;;9171087;19;20467;-62
2023/02/08 13:25:51;;;;;;;12.02;2.45;;;7.20;71.90;;;;;;9173502;19;20025;-63
2023/02/08 13:28:57;;;;;;;4.28;1.98;;;7.30;72.00;;;;;;9175683;19;20037;-62
2023/02/08 13:32:11;;;;;;;3.90;2.20;;;7.20;71.80;;;;;;9175279;19;20025;-64
2023/02/08 13:35:19;;;;;;;3.88;1.70;;;7.20;71.60;;;;;;9175372;19;20381;-62
2023/02/08 13:38:30;;;;;;;3.45;1.98;;;7.20;71.50;;;;;;9176587;19;20030;-64
2023/02/08 13:41:36;;;;;;;10.95;2.20;;;7.20;71.50;;;;;;9176602;19;20030;-61
2023/02/08 13:44:42;;;;;;;4.68;2.38;;;7.20;71.40;;;;;;9175499;19;20018;-61
2023/02/08 13:47:47;;;;;;;;;;;7.20;71.30;;;;;;9177084;19;20026;-62
2023/02/08 13:50:54;;;;;;;3.90;1.80;;;7.10;71.30;;;;;;9176435;19;20272;-64
2023/02/08 13:54:13;;;;;;;3.90;1.98;;;7.10;71.60;;;;;;9175491;19;20018;-62
2023/02/08 13:57:49;;;;;;;3.55;2.05;;;7.10;70.80;;;;;;9174721;19;20022;-61
2023/02/08 14:01:15;;;;;;;4.32;2.13;;;7.10;70.70;;;;;;9175863;19;20022;-62
2023/02/08 14:04:38;;;;;;;4.78;2.20;;;7.10;70.80;;;;;;9177966;19;20141;-61
2023/02/08 14:07:45;;;;;;;3.42;2.00;;;7.10;70.60;;;;;;9176800;19;20018;-66
2023/02/08 14:11:07;;;;;;;4.10;2.05;;;7.10;70.80;;;;;;9176925;19;20018;-62
2023/02/08 14:14:18;;;;;;;2.83;1.73;;;7.10;70.30;;;;;;9174470;19;20398;-64
2023/02/08 14:17:28;;;;;;;2.42;1.70;;;7.10;70.40;;;;;;9174878;19;20018;-63
2023/02/08 14:20:38;;;;;;;5.50;2.03;;;7.10;70.50;;;;;;9165853;19;20015;-60
2023/02/08 14:23:45;;;;;;;6.32;2.40;;;7.10;70.20;;;;;;9171728;19;20037;-61
2023/02/08 14:26:52;;;;;;;4.43;1.63;;;7.10;70.20;;;;;;9170558;19;20015;-62
2023/02/08 14:30:00;;;;;;;5.03;2.20;;;7.10;70.00;;;;;;9170590;19;20029;-61
2023/02/08 14:33:16;;;;;;;11.20;2.10;;;7.20;69.90;;;;;;9172423;19;20006;-64
2023/02/08 14:36:29;;;;;;;8.38;2.03;;;7.20;69.60;;;;;;9167583;19;20017;-63
2023/02/08 14:39:36;;;;;;;3.30;2.15;;;7.20;69.70;;;;;;9169767;19;20010;-64
2023/02/08 14:42:58;;;;;;;4.82;1.95;;;7.10;69.60;;;;;;9166776;19;20015;-63
2023/02/08 14:46:41;;;;;;;3.70;1.95;;;7.20;69.10;;;;;;9174491;19;20022;-65
2023/02/08 14:49:48;;;;;;;3.55;2.28;;;7.20;69.10;;;;;;9174392;19;20648;-63
2023/02/08 14:53:00;;;;;;;3.58;2.20;;;7.20;69.50;;;;;;9174614;19;20590;-62
2023/02/08 14:56:16;;;;;;;3.85;1.80;;;7.20;69.30;;;;;;9173184;19;20025;-61
2023/02/08 14:59:26;;;;;;;5.38;2.10;;;7.20;69.30;;;;;;9173760;19;20495;-64
2023/02/08 15:02:32;;;;;;;4.35;2.05;;;7.10;69.00;;;;;;9175048;19;20654;-61
2023/02/08 15:05:43;;;;;;;2.55;1.83;;;7.10;69.10;;;;;;9175696;19;20047;-63
2023/02/08 15:09:04;;;;;;;3.15;1.73;;;7.10;68.90;;;;;;9175799;19;20064;-63
2023/02/08 15:12:15;;;;;;;4.82;2.15;;;7.10;69.00;;;;;;9176118;19;20037;-62
2023/02/08 15:15:30;;;;;;;3.83;1.90;;;7.10;68.70;;;;;;9177680;19;20018;-64
2023/02/08 15:18:34;;;;;;;3.75;2.25;;;7.10;68.50;;;;;;9176459;19;20026;-64
2023/02/08 15:21:40;;;;;;;4.93;2.15;;;7.10;68.70;;;;;;9180618;19;20022;-65
2023/02/08 15:24:50;;;;;;;;;;;7.00;68.50;;;;;;9181806;19;20475;-61
2023/02/08 15:27:58;;;;;;;4.78;2.20;;;7.00;68.60;;;;;;9180973;19;20002;-62
2023/02/08 15:31:08;;;;;;;5.95;2.47;;;7.00;68.90;;;;;;9178074;19;20021;-62
2023/02/08 15:34:14;;;;;;;7.70;2.92;;;7.00;68.60;;;;;;9179956;19;20033;-61
2023/02/08 15:37:19;;;;;;;5.47;2.72;;;6.90;68.60;;;;;;9176872;19;20371;-63
2023/02/08 15:40:31;;;;;;;5.75;1.85;;;6.90;68.40;;;;;;9179123;19;20018;-61
2023/02/08 15:43:36;;;;;;;2.53;2.00;;;6.90;68.40;;;;;;9179950;19;20021;-61
2023/02/08 15:46:45;;;;;;;6.70;2.28;;;6.90;68.40;;;;;;9181110;19;20017;-63
2023/02/08 15:49:52;;;;;;;4.22;2.35;;;6.80;68.20;;;;;;9179877;19;20022;-63
2023/02/08 15:53:00;;;;;;;3.95;2.15;;;6.80;68.10;;;;;;9178940;19;20011;-62
2023/02/08 15:56:06;;;;;;;5.40;2.00;;;6.80;68.00;;;;;;9178185;19;20027;-63
2023/02/08 15:59:19;;;;;;;4.63;2.33;;;6.80;68.00;;;;;;9172363;19;20483;-62
2023/02/08 16:02:29;;;;;;;3.50;2.05;;;6.70;67.80;;;;;;9175250;19;20015;-60
2023/02/08 16:05:36;;;;;;;2.53;1.95;;;6.70;67.80;;;;;;9179339;19;20570;-63
2023/02/08 16:08:43;;;;;;;2.95;1.90;;;6.70;67.80;;;;;;9177476;19;20346;-63
2023/02/08 16:11:51;;;;;;;2.92;1.75;;;6.60;67.60;;;;;;9166274;19;20116;-62
2023/02/08 16:14:56;;;;;;;4.20;1.88;;;6.60;67.60;;;;;;9171322;19;20027;-61
2023/02/08 16:18:03;;;;;;;2.88;1.85;;;6.60;67.60;;;;;;9162798;19;20018;-63
2023/02/08 16:21:21;;;;;;;5.57;2.20;;;6.50;67.50;;;;;;9162564;19;20441;-62